Hlavní strana
METAR-TAF:

METAR-TAF

Letiště :

Jasper, Georgie, Spojené státy americké

zeměpisná šířka: 34-27-12N, zeměpisná délka: 084-27-26W, výška: 468 m

Aktuální stav počasí

Zpráva byla vytvořena před 35 minutami, v 11:35 UTC
Bezvětří
Teplota 23°C
Vlhkost vzduchu 83%
Tlak 1024 hPa
Viditelnost: 16.1 km
Oblačno až skoro zataženo ve výšce 4900 ft
Zataženo ve výšce 7500 ft

METAR: KJZP 241135Z AUTO 00000KT 10SM BKN049 OVC075 23/20 A3025 RMK AO2 T02310198 PNO

Čas: 08:10 (12:10 UTC)


TAF: chybějící

Stav a předpovědi počasí z více než 4 000 letišť (zprávy METAR a TAF).

Červené a žluté tečky na mapě představují dostupné meteorologické stanice.

Když kurzor umístíte na tečku, zobrazí se název stanice.

Pak kliknutím zobrazíte stav a předpověď počasí.

Chcete-li změnit mapu, kliknutím na zelené tlačítko se znaménkem +mapu přiblížíte, kliknutím na zelené tlačítko se znaménkem – mapu oddálíte a kliknutím na zelené šipky přejdete na sousední mapy.


METAR-TAF: